Euskara    
Meteorología y climatología de Navarra
Datos de la estación - Meteo Navarra

Estación de Doneztebe-Santesteban GN

Altitud 125 m.


Datos desde el 14/01/2021 hasta el 15/01/2021 en horario solar
Los datos son PROVISIONALES

Anterior Página 1 de 1 Siguiente Descargar: Formato para Excel 2000 o superior   Formato csv   Formato para OpenOffice Calc
Fecha Temperatura Humedad relativa Radiación global Insolación Precipitación Vel. viento 10 m Vel. viento 10 m Dir. viento 10 m
°C % W/m² s l/m² m/s km/h °
14/01/2021 0:00 6.7 99 0.0 0 0.0 0.1 0.3 286
14/01/2021 0:10 6.7 99 0.0 0 0.0 0.1 0.3 124
14/01/2021 0:20 6.7 99 0.0 0 0.0 0.1 0.3 116
14/01/2021 0:30 6.6 98 0.0 0 0.0 0.4 1.3 293
14/01/2021 0:40 6.7 99 0.0 0 0.0 0.3 0.9 230
14/01/2021 0:50 6.6 99 0.0 0 0.0 0.1 0.2 132
14/01/2021 1:00 6.6 99 0.0 0 0.0 0.1 0.3 131
14/01/2021 1:10 6.6 99 0.0 0 0.0 0.0 0.0 0
14/01/2021 1:20 6.6 99 0.0 0 0.0 0.2 0.7 261
14/01/2021 1:30 6.6 99 0.0 0 0.0 0.1 0.3 255
14/01/2021 1:40 6.6 99 0.0 0 0.0 0.0 0.0 142
14/01/2021 1:50 6.5 99 0.0 0 0.0 0.5 1.7 146
14/01/2021 2:00 6.6 99 0.0 0 0.0 0.6 2.1 227
14/01/2021 2:10 6.5 99 0.0 0 0.0 0.5 1.9 222
14/01/2021 2:20 6.5 99 0.0 0 0.0 0.4 1.3 273
14/01/2021 2:30 6.5 99 0.0 0 0.0 0.0 0.0 296
14/01/2021 2:40 6.5 99 0.0 0 0.0 0.0 0.0 0
14/01/2021 2:50 6.5 99 0.0 0 0.0 0.0 0.0 0
14/01/2021 3:00 6.5 99 0.0 0 0.0 0.0 0.0 0
14/01/2021 3:10 6.5 99 0.0 0 0.0 0.0 0.0 0
14/01/2021 3:20 6.5 99 0.0 0 0.0 0.2 0.8 112
14/01/2021 3:30 6.5 99 0.0 0 0.0 0.2 0.6 120
14/01/2021 3:40 6.4 99 0.0 0 0.0 0.1 0.5 206
14/01/2021 3:50 6.4 99 0.0 0 0.0 0.2 0.8 324
14/01/2021 4:00 6.4 99 0.0 0 0.0 0.0 0.1 134
14/01/2021 4:10 6.5 99 0.0 0 0.0 0.3 1.2 122
14/01/2021 4:20 6.5 99 0.0 0 0.0 0.0 0.0 0
14/01/2021 4:30 6.4 99 0.0 0 0.0 0.0 0.0 0
14/01/2021 4:40 6.4 99 0.0 0 0.0 0.4 1.5 123
14/01/2021 4:50 6.4 99 0.0 0 0.0 0.3 1.2 92
14/01/2021 5:00 6.3 99 0.0 0 0.0 0.0 0.0 0
14/01/2021 5:10 6.3 99 0.0 0 0.0 0.1 0.5 224
14/01/2021 5:20 6.3 99 0.0 0 0.0 0.0 0.0 0
14/01/2021 5:30 6.3 99 0.0 0 0.0 0.0 0.0 0
14/01/2021 5:40 6.3 99 0.0 0 0.0 0.0 0.0 0
14/01/2021 5:50 6.3 99 0.0 0 0.0 0.2 0.5 233
14/01/2021 6:00 6.2 99 0.0 0 0.0 0.0 0.0 0
14/01/2021 6:10 6.2 99 0.0 0 0.0 0.0 0.1 100
14/01/2021 6:20 6.2 99 0.0 0 0.0 0.1 0.5 101
14/01/2021 6:30 6.2 99 0.0 0 0.0 0.0 0.0 0
14/01/2021 6:40 6.2 99 0.0 0 0.0 0.1 0.2 188
14/01/2021 6:50 6.2 99 0.0 0 0.0 0.0 0.0 0
14/01/2021 7:00 6.2 99 0.0 0 0.0 0.1 0.2 191
14/01/2021 7:10 6.3 99 0.0 0 0.0 0.0 0.0 0
14/01/2021 7:20 6.2 99 0.0 0 0.0 0.0 0.0 0
14/01/2021 7:30 6.3 99 0.0 0 0.0 0.0 0.0 0
14/01/2021 7:40 6.2 99 0.0 0 0.0 0.0 0.0 0
14/01/2021 7:50 6.2 99 0.0 0 0.0 0.0 0.0 0
14/01/2021 8:00 6.2 99 0.0 0 0.0 0.0 0.0 0
14/01/2021 8:10 6.3 99 0.0 0 0.0 0.4 1.3 151
14/01/2021 8:20 6.3 99 0.0 0 0.0 0.0 0.1 137
14/01/2021 8:30 6.3 99 0.0 0 0.0 0.0 0.0 0
14/01/2021 8:40 6.3 99 0.0 0 0.0 0.2 0.6 138
14/01/2021 8:50 6.4 99 8.8 0 0.0 0.4 1.6 125
14/01/2021 9:00 6.5 99 21.2 0 0.0 0.2 0.9 125
14/01/2021 9:10 6.4 99 28.3 0 0.0 0.2 0.8 164
14/01/2021 9:20 6.5 99 33.2 0 0.0 0.8 2.8 125
14/01/2021 9:30 6.5 99 41.6 0 0.0 0.9 3.2 127
14/01/2021 9:40 6.6 99 43.0 0 0.0 0.3 0.9 112
14/01/2021 9:50 6.6 99 43.5 0 0.0 0.5 1.9 135
14/01/2021 10:00 6.6 99 59.0 0 0.0 1.1 3.9 124
14/01/2021 10:10 6.7 99 71.7 0 0.0 0.6 2.1 161
14/01/2021 10:20 6.8 99 69.9 0 0.0 0.3 0.9 140
14/01/2021 10:30 6.8 99 68.7 0 0.0 0.3 1.0 206
14/01/2021 10:40 7.0 99 83.3 0 0.0 0.2 0.7 134
14/01/2021 10:50 7.0 98 101.3 0 0.0 0.2 0.7 165
14/01/2021 11:00 7.0 98 88.7 0 0.0 0.2 0.9 251
14/01/2021 11:10 7.1 98 86.7 0 0.0 0.4 1.4 128
14/01/2021 11:20 7.3 98 88.3 0 0.0 0.2 0.8 229
14/01/2021 11:30 7.4 97 89.3 0 0.0 0.2 0.7 196
14/01/2021 11:40 7.5 97 107.3 0 0.0 0.1 0.4 130
14/01/2021 11:50 7.6 96 84.0 0 0.0 0.0 0.0 5
14/01/2021 12:00 7.6 95 121.0 0 0.0 0.0 0.0 0
14/01/2021 12:10 7.7 95 129.4 0 0.0 0.0 0.1 213
14/01/2021 12:20 7.9 94 139.4 0 0.0 0.0 0.0 0
14/01/2021 12:30 8.2 93 132.0 0 0.0 0.0 0.0 0
14/01/2021 12:40 8.4 92 135.8 0 0.0 0.2 0.6 311
14/01/2021 12:50 8.6 91 185.3 0 0.0 0.0 0.1 131
14/01/2021 13:00 8.8 90 196.5 0 0.0 0.2 0.8 64
14/01/2021 13:10 8.9 89 155.2 0 0.0 0.3 1.1 141
14/01/2021 13:20 8.9 88 129.4 0 0.0 0.0 0.0 280
14/01/2021 13:30 9.1 87 105.6 0 0.0 0.1 0.3 349
14/01/2021 13:40 9.1 88 79.0 0 0.0 0.4 1.3 295
14/01/2021 13:50 9.0 89 73.3 0 0.0 0.4 1.3 283
14/01/2021 14:00 9.1 88 100.1 0 0.0 0.2 0.8 289
14/01/2021 14:10 9.1 88 69.5 0 0.0 0.0 0.1 311
14/01/2021 14:20 9.2 88 54.9 0 0.0 0.2 0.8 296
14/01/2021 14:30 9.1 87 49.5 0 0.0 0.7 2.6 325
14/01/2021 14:40 9.1 88 46.5 0 0.0 0.3 1.1 320
14/01/2021 14:50 9.1 89 41.7 0 0.0 0.2 0.6 256
14/01/2021 15:00 9.1 91 51.1 0 0.0 0.1 0.3 90
14/01/2021 15:10 9.0 88 43.4 0 0.0 0.1 0.5 348
14/01/2021 15:20 9.1 88 39.2 0 0.0 0.1 0.5 348
14/01/2021 15:30 9.1 91 30.2 0 0.0 0.0 0.0 0
14/01/2021 15:40 8.9 91 24.4 0 0.0 0.2 0.6 114
14/01/2021 15:50 8.8 91 22.9 0 0.0 0.5 1.8 101
14/01/2021 16:00 8.6 91 17.2 0 0.0 0.8 3.0 150
14/01/2021 16:10 8.4 92 0.0 0 0.0 0.2 0.6 172
14/01/2021 16:20 8.3 92 0.0 0 0.0 1.0 3.6 134
14/01/2021 16:30 8.3 90 0.0 0 0.0 1.8 6.6 107
14/01/2021 16:40 8.2 90 0.0 0 0.0 1.8 6.3 121
14/01/2021 16:50 8.1 91 0.0 0 0.0 1.4 5.1 118
14/01/2021 17:00 8.1 92 0.0 0 0.0 1.6 5.7 134
14/01/2021 17:10 8.0 93 0.0 0 0.0 1.6 5.9 136
14/01/2021 17:20 7.9 94 0.0 0 0.0 2.0 7.1 130
14/01/2021 17:30 7.8 95 0.0 0 0.0 1.8 6.6 129
14/01/2021 17:40 7.7 96 0.0 0 0.0 2.0 7.2 137
14/01/2021 17:50 7.6 96 0.0 0 0.0 1.9 6.9 142
14/01/2021 18:00 7.6 96 0.0 0 0.0 1.7 6.2 149
14/01/2021 18:10 7.6 96 0.0 0 0.0 1.4 5.2 143
14/01/2021 18:20 7.6 96 0.0 0 0.0 1.1 3.9 141
14/01/2021 18:30 7.6 96 0.0 0 0.0 1.0 3.5 140
14/01/2021 18:40 7.6 96 0.0 0 0.0 0.2 0.8 147
14/01/2021 18:50 7.5 97 0.0 0 0.0 0.6 2.3 135
14/01/2021 19:00 7.5 97 0.0 0 0.0 0.9 3.1 128
14/01/2021 19:10 7.5 97 0.0 0 0.0 0.8 3.0 115
14/01/2021 19:20 7.5 98 0.0 0 0.0 0.6 2.3 130
14/01/2021 19:30 7.5 98 0.0 0 0.0 1.0 3.7 117
14/01/2021 19:40 7.4 98 0.0 0 0.0 0.9 3.2 126
14/01/2021 19:50 7.5 98 0.0 0 0.0 0.9 3.2 202
14/01/2021 20:00 7.5 98 0.0 0 0.0 1.2 4.1 99
14/01/2021 20:10 7.5 98 0.0 0 0.0 1.1 4.1 133
14/01/2021 20:20 7.7 98 0.0 0 0.0 0.6 2.3 156
14/01/2021 20:30 7.7 98 0.0 0 0.0 0.4 1.4 123
14/01/2021 20:40 7.6 98 0.0 0 0.0 0.9 3.1 135
14/01/2021 20:50 7.8 98 0.0 0 0.0 1.4 5.0 140
14/01/2021 21:00 8.0 98 0.0 0 0.0 1.1 4.1 133
14/01/2021 21:10 8.0 98 0.0 0 0.0 0.6 2.3 67
14/01/2021 21:20 8.2 98 0.0 0 0.0 1.1 3.8 190
14/01/2021 21:30 8.8 97 0.0 0 0.0 1.5 5.4 198
14/01/2021 21:40 9.0 96 0.0 0 0.0 1.1 4.0 248
14/01/2021 21:50 9.1 95 0.0 0 0.0 0.8 2.9 231
14/01/2021 22:00 9.1 94 0.0 0 0.0 1.4 5.2 209
14/01/2021 22:10 9.0 94 0.0 0 0.0 0.5 1.8 86
14/01/2021 22:20 8.5 96 0.0 0 0.0 0.9 3.2 178
14/01/2021 22:30 8.1 96 0.0 0 0.0 0.6 2.3 94
14/01/2021 22:40 8.2 97 0.0 0 0.0 0.3 1.0 242
14/01/2021 22:50 7.8 97 0.0 0 0.0 0.1 0.3 159
14/01/2021 23:00 7.6 97 0.0 0 0.0 0.6 2.1 270
14/01/2021 23:10 7.5 98 0.0 0 0.0 1.0 3.5 137
14/01/2021 23:20 7.4 98 0.0 0 0.0 0.9 3.1 207
14/01/2021 23:30 7.1 98 0.0 0 0.0 0.5 1.8 172
14/01/2021 23:40 7.2 99 0.0 0 0.0 0.9 3.1 310
14/01/2021 23:50 7.3 99 0.0 0 0.0 0.2 0.7 143
Anterior Página 1 de 1 Siguiente

NOTA: Tipo de datos según el color:
   - Valores diarios o 10 minutos correctos
   - Valores diarios calculados a partir de un número de datos 10 minutos menor que 144 y mayor que 120, o de un número de datos semihorarios menor que 48 y mayor que 40 (caso de las estaciones de INTIA Y Ministerio)
   - Valores diez minutos estimados


Contacto        Enlaces        Aviso legal